createdAt,value
2018-11-25T00:01:25.719Z,5.73
2018-11-25T00:03:56.677Z,6.07
2018-11-25T00:06:27.586Z,6.13
2018-11-25T00:08:58.685Z,5.63
2018-11-25T00:11:29.654Z,5.93
2018-11-25T00:14:00.681Z,5.37
2018-11-25T00:16:32.796Z,5.73
2018-11-25T00:19:03.856Z,5.33
2018-11-25T00:21:36.738Z,5.53
2018-11-25T00:24:07.962Z,5.50
2018-11-25T00:26:38.949Z,5.43
2018-11-25T00:29:09.942Z,5.50
2018-11-25T00:31:40.921Z,4.70
2018-11-25T00:34:11.956Z,4.80
2018-11-25T00:36:43.394Z,4.93
2018-11-25T00:39:14.666Z,5.27
2018-11-25T00:41:46.177Z,4.77
2018-11-25T00:44:17.158Z,4.00
2018-11-25T00:46:48.060Z,4.20
2018-11-25T00:49:18.997Z,4.50
2018-11-25T00:51:49.864Z,5.63
2018-11-25T00:54:20.813Z,4.93
2018-11-25T00:56:51.726Z,6.23
2018-11-25T00:59:22.701Z,5.67
2018-11-25T01:01:54.017Z,5.83
2018-11-25T01:04:25.046Z,5.90
2018-11-25T01:06:55.906Z,6.30
2018-11-25T01:09:26.980Z,5.93
2018-11-25T01:11:58.100Z,5.97
2018-11-25T01:14:29.125Z,5.93
2018-11-25T01:17:00.004Z,5.90
2018-11-25T01:19:31.001Z,5.70
2018-11-25T01:22:02.035Z,6.53
2018-11-25T01:24:33.151Z,6.23
2018-11-25T01:27:04.136Z,6.07
2018-11-25T01:29:35.129Z,6.50
2018-11-25T01:32:06.242Z,5.80
2018-11-25T01:34:37.316Z,5.60
2018-11-25T01:37:08.523Z,5.57
2018-11-25T01:39:39.618Z,5.37
2018-11-25T01:42:10.557Z,6.10
2018-11-25T01:44:42.457Z,6.33
2018-11-25T01:47:13.965Z,6.20
2018-11-25T01:49:45.031Z,6.33
2018-11-25T01:52:15.973Z,6.10
2018-11-25T01:54:47.073Z,6.20
2018-11-25T01:57:18.041Z,6.77
2018-11-25T01:59:49.330Z,7.07
2018-11-25T02:02:20.252Z,6.37
2018-11-25T02:04:51.357Z,6.40
2018-11-25T02:07:22.337Z,6.70
2018-11-25T02:09:53.390Z,7.57
2018-11-25T02:12:24.504Z,7.17
2018-11-25T02:14:55.550Z,7.07
2018-11-25T02:17:26.625Z,6.87
2018-11-25T02:19:57.687Z,6.57
2018-11-25T02:22:29.088Z,6.43
2018-11-25T02:24:59.751Z,6.27
2018-11-25T02:27:30.806Z,6.27
2018-11-25T02:30:01.817Z,5.67
2018-11-25T02:32:32.822Z,5.83
2018-11-25T02:35:03.985Z,6.83
2018-11-25T02:37:35.009Z,6.87
2018-11-25T02:40:09.315Z,6.80
2018-11-25T02:42:40.556Z,6.70
2018-11-25T02:45:14.249Z,6.70
2018-11-25T02:47:45.268Z,7.13
2018-11-25T02:50:29.102Z,7.53
2018-11-25T02:53:02.141Z,7.73
2018-11-25T02:55:33.201Z,7.83
2018-11-25T02:58:04.593Z,8.23
2018-11-25T03:00:35.610Z,7.87
2018-11-25T03:03:06.635Z,8.07
2018-11-25T03:05:37.599Z,7.27
2018-11-25T03:08:08.625Z,7.53
2018-11-25T03:10:39.675Z,7.10
2018-11-25T03:13:11.472Z,7.13
2018-11-25T03:15:43.204Z,6.67
2018-11-25T03:18:14.087Z,7.00
2018-11-25T03:20:45.026Z,7.03
2018-11-25T03:23:15.899Z,6.80
2018-11-25T03:25:46.876Z,6.60
2018-11-25T03:28:17.797Z,6.40
2018-11-25T03:30:48.736Z,7.20
2018-11-25T03:33:19.683Z,6.20
2018-11-25T03:35:50.925Z,7.37
2018-11-25T03:38:21.815Z,6.27
2018-11-25T03:40:53.016Z,6.63
2018-11-25T03:43:24.646Z,7.00
2018-11-25T03:45:55.600Z,7.07
2018-11-25T03:48:26.534Z,7.27
2018-11-25T03:50:57.533Z,7.10
2018-11-25T03:53:28.435Z,7.93
2018-11-25T03:55:59.806Z,7.47
2018-11-25T03:58:30.709Z,7.10
2018-11-25T04:01:01.640Z,6.73
2018-11-25T04:03:32.548Z,6.93
2018-11-25T04:06:03.558Z,6.70
2018-11-25T04:08:34.527Z,7.10
2018-11-25T04:11:05.472Z,6.33
2018-11-25T04:13:36.365Z,6.73
2018-11-25T04:16:07.821Z,6.40
2018-11-25T04:18:38.763Z,7.50
2018-11-25T04:21:09.769Z,7.83
2018-11-25T04:23:40.697Z,8.03
2018-11-25T04:26:11.685Z,8.33
2018-11-25T04:28:42.659Z,8.47
2018-11-25T04:31:13.649Z,8.00
2018-11-25T04:33:45.636Z,6.90
2018-11-25T04:36:16.685Z,7.47
2018-11-25T04:38:47.994Z,8.37
2018-11-25T04:41:20.386Z,8.57
2018-11-25T04:43:51.657Z,8.40
2018-11-25T04:46:22.867Z,9.87
2018-11-25T04:48:54.302Z,10.90
2018-11-25T04:51:26.560Z,10.23
2018-11-25T04:53:57.867Z,11.73
2018-11-25T04:56:28.885Z,11.43
2018-11-25T04:58:59.797Z,11.23
2018-11-25T05:01:30.773Z,10.47
2018-11-25T05:04:02.419Z,10.80
2018-11-25T05:06:33.682Z,10.00
2018-11-25T05:09:05.278Z,9.10
2018-11-25T05:11:36.408Z,8.60
2018-11-25T05:14:08.110Z,10.63
2018-11-25T05:16:41.266Z,10.47
2018-11-25T05:19:12.192Z,9.60
2018-11-25T05:21:43.181Z,8.20
2018-11-25T05:24:14.089Z,7.97
2018-11-25T05:26:45.731Z,8.73
2018-11-25T05:29:16.637Z,19.37
2018-11-25T05:31:47.619Z,24.63
2018-11-25T05:34:18.551Z,11.83
2018-11-25T05:36:49.652Z,8.60
2018-11-25T05:39:20.597Z,9.10
2018-11-25T05:41:51.576Z,9.53
2018-11-25T05:44:22.518Z,10.63
2018-11-25T05:46:53.539Z,10.20
2018-11-25T05:49:24.532Z,10.00
2018-11-25T05:51:56.540Z,10.90
2018-11-25T05:54:27.944Z,11.70
2018-11-25T05:56:59.413Z,10.93
2018-11-25T05:59:31.005Z,11.07
2018-11-25T06:02:03.146Z,10.90
2018-11-25T06:04:34.078Z,11.70
2018-11-25T06:07:05.490Z,11.03
2018-11-25T06:09:36.933Z,10.37
2018-11-25T06:12:08.684Z,10.43
2018-11-25T06:14:39.863Z,9.87
2018-11-25T06:17:11.155Z,10.80
2018-11-25T06:19:42.354Z,10.50
2018-11-25T06:22:13.758Z,11.10
2018-11-25T06:24:44.943Z,13.40
2018-11-25T06:27:16.217Z,12.73
2018-11-25T06:29:47.366Z,13.80
2018-11-25T06:32:18.705Z,11.77
2018-11-25T06:34:49.918Z,12.13
2018-11-25T06:37:21.495Z,11.70
2018-11-25T06:39:52.406Z,12.73
2018-11-25T06:42:23.388Z,14.47
2018-11-25T06:44:54.286Z,15.70
2018-11-25T06:47:25.286Z,12.53
2018-11-25T06:49:56.240Z,12.40
2018-11-25T06:52:27.198Z,13.20
2018-11-25T06:54:58.154Z,12.27
2018-11-25T06:57:29.409Z,12.60
2018-11-25T07:00:00.355Z,13.03
2018-11-25T07:02:31.260Z,12.37
2018-11-25T07:05:02.195Z,12.50
2018-11-25T07:07:33.266Z,12.67
2018-11-25T07:10:04.282Z,11.90
2018-11-25T07:12:35.234Z,11.10
2018-11-25T07:15:09.229Z,11.80
2018-11-25T07:17:40.310Z,13.10
2018-11-25T07:20:14.297Z,14.00
2018-11-25T07:22:45.357Z,14.53
2018-11-25T07:25:18.233Z,14.97
2018-11-25T07:27:49.206Z,15.10
2018-11-25T07:30:22.329Z,19.43
2018-11-25T07:32:53.301Z,16.73
2018-11-25T07:35:25.738Z,15.17
2018-11-25T07:37:57.369Z,13.77
2018-11-25T07:40:28.678Z,13.33
2018-11-25T07:42:59.633Z,14.67
2018-11-25T07:45:30.997Z,13.57
2018-11-25T07:48:02.101Z,15.70
2018-11-25T07:50:33.033Z,15.13
2018-11-25T07:53:04.093Z,14.47
2018-11-25T07:55:36.122Z,13.40
2018-11-25T07:58:07.542Z,13.63
2018-11-25T08:00:39.586Z,14.03
2018-11-25T08:03:10.638Z,14.40
2018-11-25T08:05:41.641Z,16.80
2018-11-25T08:08:12.590Z,16.27
2018-11-25T08:10:43.486Z,17.63
2018-11-25T08:13:14.489Z,15.93
2018-11-25T08:15:45.528Z,15.57
2018-11-25T08:18:16.999Z,14.50
2018-11-25T08:20:47.911Z,14.27
2018-11-25T08:23:18.884Z,14.93
2018-11-25T08:25:49.806Z,15.13
2018-11-25T08:28:20.781Z,16.17
2018-11-25T08:30:51.706Z,15.50
2018-11-25T08:33:24.314Z,15.90
2018-11-25T08:35:55.337Z,15.53
2018-11-25T08:38:26.646Z,14.93
2018-11-25T08:40:57.498Z,15.13
2018-11-25T08:43:28.466Z,14.77
2018-11-25T08:45:59.497Z,14.43
2018-11-25T08:48:31.613Z,13.43
2018-11-25T08:51:03.780Z,14.03
2018-11-25T08:53:35.131Z,14.83
2018-11-25T08:56:06.588Z,15.33
2018-11-25T08:58:38.881Z,14.80
2018-11-25T09:01:10.880Z,15.43
2018-11-25T09:03:41.819Z,15.60
2018-11-25T09:06:13.341Z,17.27
2018-11-25T09:08:46.688Z,16.37
2018-11-25T09:11:18.155Z,16.40
2018-11-25T09:13:51.445Z,15.30
2018-11-25T09:16:22.341Z,15.37
2018-11-25T09:18:55.842Z,15.07
2018-11-25T09:21:26.789Z,14.70
2018-11-25T09:23:57.739Z,14.10
2018-11-25T09:26:28.791Z,13.20
2018-11-25T09:28:59.882Z,12.77
2018-11-25T09:31:30.858Z,13.40
2018-11-25T09:34:01.716Z,12.90
2018-11-25T09:36:32.789Z,12.80
2018-11-25T09:39:10.145Z,13.40
2018-11-25T09:44:39.534Z,14.40
2018-11-25T09:47:11.457Z,13.67
2018-11-25T09:49:44.611Z,14.10
2018-11-25T09:52:23.753Z,13.60
2018-11-25T09:55:15.640Z,13.20
2018-11-25T09:57:52.007Z,13.57
2018-11-25T10:00:26.787Z,12.80
2018-11-25T10:02:57.809Z,13.57
2018-11-25T10:05:40.018Z,12.97
2018-11-25T10:08:12.635Z,12.07
2018-11-25T10:10:44.152Z,12.73
2018-11-25T10:13:17.061Z,11.83
2018-11-25T10:15:51.255Z,12.13
2018-11-25T10:18:22.278Z,15.57
2018-11-25T10:20:53.690Z,14.23
2018-11-25T10:23:24.654Z,12.47
2018-11-25T10:25:55.568Z,11.70
2018-11-25T10:28:28.854Z,14.00
2018-11-25T10:31:03.613Z,17.00
2018-11-25T10:33:35.077Z,12.60
2018-11-25T10:36:07.895Z,22.90
2018-11-25T10:38:39.866Z,13.63
2018-11-25T10:41:13.320Z,11.90
2018-11-25T10:43:45.965Z,11.67
2018-11-25T10:46:18.670Z,13.93
2018-11-25T10:48:49.626Z,15.97
2018-11-25T10:51:20.636Z,19.67
2018-11-25T10:54:04.380Z,17.47
2018-11-25T10:56:36.978Z,13.57
2018-11-25T10:59:10.008Z,14.27
2018-11-25T11:01:56.032Z,14.37
2018-11-25T11:04:32.284Z,12.53
2018-11-25T11:07:08.295Z,13.10
2018-11-25T11:09:40.855Z,12.10
2018-11-25T11:12:12.514Z,11.27
2018-11-25T11:14:44.454Z,12.50
2018-11-25T11:17:15.341Z,12.00
2018-11-25T11:19:46.678Z,12.50
2018-11-25T11:22:19.340Z,12.40
2018-11-25T11:24:50.273Z,12.33
2018-11-25T11:27:21.165Z,11.50
2018-11-25T11:29:52.559Z,12.10
2018-11-25T11:32:23.601Z,12.73
2018-11-25T11:34:55.458Z,11.60
2018-11-25T11:37:27.068Z,11.87
2018-11-25T11:39:58.205Z,11.50
2018-11-25T11:42:29.203Z,17.67
2018-11-25T11:45:00.202Z,12.53
2018-11-25T11:47:31.220Z,12.10
2018-11-25T11:50:02.432Z,12.53
2018-11-25T11:52:33.712Z,11.73
2018-11-25T11:55:04.742Z,11.73
2018-11-25T11:57:35.636Z,10.97
2018-11-25T12:00:19.377Z,12.03
2018-11-25T12:02:50.469Z,11.67
2018-11-25T12:05:22.234Z,11.60
2018-11-25T12:07:55.332Z,11.27
2018-11-25T12:10:26.358Z,11.50
2018-11-25T12:12:57.380Z,11.30
2018-11-25T12:15:31.523Z,11.13
2018-11-25T12:18:02.557Z,11.77
2018-11-25T12:20:33.937Z,10.20
2018-11-25T12:23:05.052Z,11.03
2018-11-25T12:25:36.432Z,10.87
2018-11-25T12:28:08.006Z,11.30
2018-11-25T12:30:39.019Z,11.03
2018-11-25T12:33:09.948Z,10.10
2018-11-25T12:35:40.915Z,11.10
2018-11-25T12:38:11.879Z,10.73
2018-11-25T12:40:43.123Z,11.10
2018-11-25T12:43:14.136Z,10.90
2018-11-25T12:45:45.361Z,11.27
2018-11-25T12:48:16.346Z,10.97
2018-11-25T12:50:47.452Z,12.27
2018-11-25T12:53:18.827Z,12.00
2018-11-25T12:55:50.358Z,11.50
2018-11-25T12:58:21.577Z,10.17
2018-11-25T13:00:52.959Z,10.23
2018-11-25T13:03:24.217Z,10.80
2018-11-25T13:05:55.594Z,9.83
2018-11-25T13:08:26.916Z,10.27
2018-11-25T13:10:58.297Z,10.20
2018-11-25T13:13:29.532Z,9.60
2018-11-25T13:16:00.747Z,9.17
2018-11-25T13:18:32.117Z,9.03
2018-11-25T13:21:03.380Z,10.03
2018-11-25T13:23:34.369Z,10.53
2018-11-25T13:26:05.863Z,10.77
2018-11-25T13:28:36.766Z,10.57
2018-11-25T13:31:07.489Z,11.30
2018-11-25T13:33:38.607Z,11.80
2018-11-25T13:36:11.274Z,13.67
2018-11-25T13:38:42.359Z,12.93
2018-11-25T13:41:13.472Z,12.70
2018-11-25T13:43:44.521Z,12.63
2018-11-25T13:46:15.638Z,13.07
2018-11-25T13:48:46.827Z,12.83
2018-11-25T13:51:17.902Z,12.80
2018-11-25T13:53:49.014Z,12.47
2018-11-25T13:56:20.142Z,12.50
2018-11-25T13:58:51.155Z,13.20
2018-11-25T14:01:22.333Z,13.27
2018-11-25T14:03:53.708Z,13.13
2018-11-25T14:06:24.842Z,12.37
2018-11-25T14:08:56.618Z,13.00
2018-11-25T14:11:27.690Z,12.10
2018-11-25T14:13:58.723Z,12.63
2018-11-25T14:16:29.831Z,12.27
2018-11-25T14:19:00.836Z,11.87
2018-11-25T14:21:31.846Z,11.43
2018-11-25T14:24:02.858Z,11.97
2018-11-25T14:26:39.843Z,12.57
2018-11-25T14:29:10.863Z,13.73
2018-11-25T14:31:42.025Z,13.17
2018-11-25T14:34:13.104Z,12.93
2018-11-25T14:36:44.204Z,13.23
2018-11-25T14:39:15.769Z,14.30
2018-11-25T14:41:46.904Z,14.40
2018-11-25T14:44:17.907Z,15.17
2018-11-25T14:46:48.968Z,14.10
2018-11-25T14:49:19.960Z,14.40
2018-11-25T14:51:51.055Z,14.20
2018-11-25T14:54:23.213Z,14.20
2018-11-25T14:56:54.403Z,14.13
2018-11-25T14:59:25.443Z,13.73
2018-11-25T15:01:56.748Z,12.23
2018-11-25T15:04:27.748Z,14.00
2018-11-25T15:06:59.119Z,13.67
2018-11-25T15:09:30.187Z,13.43
2018-11-25T15:12:01.241Z,11.40
2018-11-25T15:14:32.564Z,11.67
2018-11-25T15:17:03.845Z,10.87
2018-11-25T15:19:34.995Z,10.90
2018-11-25T15:22:06.256Z,9.67
2018-11-25T15:24:37.262Z,10.00
2018-11-25T15:27:09.131Z,10.13
2018-11-25T15:29:40.199Z,13.87
2018-11-25T15:32:11.239Z,13.20
2018-11-25T15:34:42.781Z,11.30
2018-11-25T15:37:20.963Z,11.43
2018-11-25T15:39:52.120Z,11.67
2018-11-25T15:42:23.215Z,11.17
2018-11-25T15:44:54.135Z,13.40
2018-11-25T15:47:25.205Z,17.37
2018-11-25T15:49:56.217Z,28.50
2018-11-25T15:52:27.289Z,43.10
2018-11-25T15:54:58.317Z,36.60
2018-11-25T15:57:29.470Z,51.83
2018-11-25T16:00:01.444Z,19.67
2018-11-25T16:02:32.634Z,16.13
2018-11-25T16:05:03.654Z,22.33
2018-11-25T16:07:34.770Z,16.20
2018-11-25T16:10:08.101Z,28.00
2018-11-25T16:12:39.789Z,20.83
2018-11-25T16:15:16.378Z,20.50
2018-11-25T16:17:47.611Z,22.23
2018-11-25T16:20:21.856Z,19.03
2018-11-25T16:22:57.835Z,20.10
2018-11-25T16:25:50.589Z,20.23
2018-11-25T16:28:33.523Z,19.17
2018-11-25T16:31:04.880Z,18.77
2018-11-25T16:33:36.950Z,18.37
2018-11-25T16:36:08.259Z,18.50
2018-11-25T16:38:39.374Z,19.50
2018-11-25T16:41:10.602Z,27.13
2018-11-25T16:43:42.645Z,35.57
2018-11-25T16:46:13.702Z,18.87
2018-11-25T16:48:45.348Z,19.20
2018-11-25T16:51:16.423Z,22.30
2018-11-25T16:53:47.778Z,17.13
2018-11-25T16:56:19.050Z,17.03
2018-11-25T16:58:52.527Z,24.13
2018-11-25T17:01:23.711Z,16.53
2018-11-25T17:03:55.654Z,17.20
2018-11-25T17:06:26.947Z,14.93
2018-11-25T17:08:58.143Z,16.17
2018-11-25T17:11:29.682Z,14.37
2018-11-25T17:14:09.586Z,14.00
2018-11-25T17:16:40.699Z,14.20
2018-11-25T17:19:12.829Z,14.13
2018-11-25T17:21:43.890Z,14.27
2018-11-25T17:24:15.710Z,15.27
2018-11-25T17:26:47.966Z,14.13
2018-11-25T17:29:19.732Z,13.77
2018-11-25T17:31:53.182Z,26.83
2018-11-25T17:34:24.468Z,18.93
2018-11-25T17:36:55.433Z,14.60
2018-11-25T17:39:26.502Z,14.90
2018-11-25T17:41:58.427Z,14.73
2018-11-25T17:44:29.687Z,14.40
2018-11-25T17:47:02.286Z,15.93
2018-11-25T17:49:33.547Z,16.60
2018-11-25T17:52:04.585Z,14.27
2018-11-25T17:54:36.019Z,16.30
2018-11-25T17:57:07.126Z,14.70
2018-11-25T17:59:38.244Z,14.50
2018-11-25T18:02:09.736Z,13.40
2018-11-25T18:04:42.117Z,13.07
2018-11-25T18:07:13.303Z,12.73
2018-11-25T18:09:44.670Z,13.80
2018-11-25T18:12:15.639Z,13.93
2018-11-25T18:14:46.721Z,12.87
2018-11-25T18:17:19.238Z,13.63
2018-11-25T18:19:51.837Z,13.77
2018-11-25T18:22:27.984Z,13.63
2018-11-25T18:24:59.147Z,14.63
2018-11-25T18:27:31.183Z,14.30
2018-11-25T18:30:02.495Z,13.13
2018-11-25T18:32:33.911Z,13.57
2018-11-25T18:35:06.321Z,14.13
2018-11-25T18:37:37.862Z,14.30
2018-11-25T18:40:13.575Z,13.80
2018-11-25T18:42:45.756Z,13.90
2018-11-25T18:45:19.742Z,14.03
2018-11-25T18:47:52.303Z,13.80
2018-11-25T18:50:24.288Z,13.50
2018-11-25T18:53:07.383Z,13.80
2018-11-25T18:55:39.114Z,14.07
2018-11-25T18:58:10.293Z,12.90
2018-11-25T19:00:51.009Z,13.57
2018-11-25T19:03:22.449Z,14.27
2018-11-25T19:05:54.683Z,13.23
2018-11-25T19:08:26.344Z,13.53
2018-11-25T19:10:59.336Z,14.10
2018-11-25T19:13:30.950Z,13.67
2018-11-25T19:16:02.562Z,13.97
2018-11-25T19:18:34.075Z,13.70
2018-11-25T19:21:05.777Z,14.20
2018-11-25T19:23:37.452Z,13.73
2018-11-25T19:26:09.676Z,13.93
2018-11-25T19:28:41.133Z,13.53
2018-11-25T19:31:12.616Z,14.17
2018-11-25T19:33:45.307Z,13.53
2018-11-25T19:36:17.592Z,13.80
2018-11-25T19:38:49.192Z,13.73
2018-11-25T19:41:20.800Z,12.87
2018-11-25T19:43:52.275Z,13.53
2018-11-25T19:46:23.867Z,13.83
2018-11-25T19:48:55.545Z,14.07
2018-11-25T19:51:27.552Z,14.60
2018-11-25T19:53:59.255Z,13.67
2018-11-25T19:56:30.883Z,14.43
2018-11-25T19:59:03.755Z,14.13
2018-11-25T20:01:35.848Z,13.30
2018-11-25T20:04:08.400Z,14.13
2018-11-25T20:06:39.739Z,14.43
2018-11-25T20:09:12.247Z,13.87
2018-11-25T20:11:43.826Z,13.67
2018-11-25T20:14:15.358Z,13.87
2018-11-25T20:16:52.153Z,13.70
2018-11-25T20:19:23.670Z,13.50
2018-11-25T20:22:00.255Z,14.03
2018-11-25T20:24:31.799Z,14.50
2018-11-25T20:27:09.000Z,14.13
2018-11-25T20:29:40.847Z,13.77
2018-11-25T20:32:17.371Z,13.10
2018-11-25T20:34:49.095Z,13.57
2018-11-25T20:37:26.727Z,13.50
2018-11-25T20:39:52.521Z,14.00
2018-11-25T20:42:24.064Z,13.27
2018-11-25T20:44:55.574Z,13.17
2018-11-25T20:47:27.151Z,14.43
2018-11-25T20:49:58.647Z,13.93
2018-11-25T20:53:34.124Z,12.97
2018-11-25T20:56:05.509Z,13.90
2018-11-25T20:58:36.471Z,14.43
2018-11-25T21:01:07.425Z,14.33
2018-11-25T21:03:38.427Z,14.03
2018-11-25T21:06:09.511Z,13.27
2018-11-25T21:08:40.519Z,13.80
2018-11-25T21:11:11.446Z,13.67
2018-11-25T21:13:42.527Z,13.90
2018-11-25T21:16:13.471Z,14.53
2018-11-25T21:18:44.484Z,13.20
2018-11-25T21:21:15.471Z,13.87
2018-11-25T21:23:46.580Z,14.37
2018-11-25T21:26:17.591Z,14.33
2018-11-25T21:28:48.904Z,14.10
2018-11-25T21:31:19.895Z,13.90
2018-11-25T21:33:50.990Z,13.73
2018-11-25T21:36:21.991Z,13.37
2018-11-25T21:38:53.062Z,14.30
2018-11-25T21:41:24.030Z,13.20
2018-11-25T21:43:55.591Z,13.97
2018-11-25T21:46:26.644Z,13.20
2018-11-25T21:48:57.630Z,13.17
2018-11-25T21:51:28.709Z,12.70
2018-11-25T21:54:00.251Z,13.93
2018-11-25T21:56:31.162Z,12.50
2018-11-25T21:59:02.203Z,13.60
2018-11-25T22:01:33.180Z,12.83
2018-11-25T22:04:04.253Z,13.50
2018-11-25T22:06:35.141Z,13.43
2018-11-25T22:09:09.609Z,13.13
2018-11-25T22:11:40.532Z,12.70
2018-11-25T22:14:11.971Z,12.90
2018-11-25T22:16:42.947Z,13.63
2018-11-25T22:19:13.992Z,13.10
2018-11-25T22:21:44.952Z,13.60
2018-11-25T22:24:15.911Z,13.23
2018-11-25T22:26:46.931Z,12.90
2018-11-25T22:29:17.946Z,12.87
2018-11-25T22:31:48.976Z,13.67
2018-11-25T22:34:19.967Z,13.00
2018-11-25T22:36:50.970Z,13.63
2018-11-25T22:39:22.052Z,12.97
2018-11-25T22:41:52.979Z,13.03
2018-11-25T22:44:24.030Z,13.97
2018-11-25T22:46:55.079Z,13.50
2018-11-25T22:49:26.210Z,13.47
2018-11-25T22:51:58.130Z,13.73
2018-11-25T22:54:29.159Z,12.80
2018-11-25T22:57:00.122Z,13.17
2018-11-25T22:59:31.090Z,13.10
2018-11-25T23:02:01.982Z,13.07
2018-11-25T23:04:49.510Z,13.47
2018-11-25T23:07:20.549Z,12.93
2018-11-25T23:09:51.492Z,13.27
2018-11-25T23:12:22.431Z,13.20
2018-11-25T23:14:53.530Z,13.50
2018-11-25T23:17:24.449Z,13.00
2018-11-25T23:19:55.381Z,13.03
2018-11-25T23:22:26.341Z,12.93
2018-11-25T23:24:57.267Z,12.93
2018-11-25T23:27:28.185Z,12.90
2018-11-25T23:29:59.233Z,12.87
2018-11-25T23:32:30.213Z,11.87
2018-11-25T23:35:01.769Z,11.93
2018-11-25T23:37:32.783Z,10.97
2018-11-25T23:40:03.843Z,12.13
2018-11-25T23:42:35.142Z,11.30
2018-11-25T23:45:11.651Z,10.83
2018-11-25T23:47:43.557Z,11.40
2018-11-25T23:50:15.775Z,11.67
2018-11-25T23:52:48.567Z,10.83
2018-11-25T23:55:19.569Z,11.33
2018-11-25T23:57:50.518Z,10.33
